Time;durP1;ratioP1;P1;durP2;ratioP2;P2;SDS_P1;SDS_P2;PMS_P1;PMS_P2;Temp;Humidity;BMP_temperature;BMP_pressure;BME280_temperature;BME280_humidity;BME280_pressure;Samples;Min_cycle;Max_cycle;Signal;HPM_P1;HPM_P2
2022/11/06 00:01:23;;;;;;;12.95;10.55;;;;;;;7.94;100.00;101207.78;5008862;28;20181;-48
2022/11/06 00:03:52;;;;;;;13.93;10.25;;;;;;;7.89;100.00;101207.00;5007323;28;20183;-49
2022/11/06 00:09:06;;;;;;;12.43;10.23;;;;;;;7.89;100.00;101205.19;5009046;28;20280;-49
2022/11/06 00:11:32;;;;;;;14.65;10.00;;;;;;;7.89;100.00;101210.53;5009022;28;20641;-47
2022/11/06 00:13:59;;;;;;;11.85;10.35;;;;;;;7.93;100.00;101212.22;5007991;28;20234;-47
2022/11/06 00:16:25;;;;;;;15.05;10.25;;;;;;;7.94;100.00;101191.78;5007437;28;20193;-48
2022/11/06 00:18:51;;;;;;;11.15;9.85;;;;;;;7.93;100.00;101211.34;5008579;28;20195;-49
2022/11/06 00:21:22;;;;;;;13.90;10.10;;;;;;;7.94;100.00;101202.47;5008547;28;20184;-48
2022/11/06 00:23:48;;;;;;;15.07;10.80;;;;;;;7.93;100.00;101206.03;5007544;28;20185;-48
2022/11/06 00:26:18;;;;;;;11.60;10.20;;;;;;;7.96;100.00;101196.16;5008561;28;20634;-47
2022/11/06 00:28:43;;;;;;;15.75;10.70;;;;;;;7.92;100.00;101190.94;5009425;28;20303;-49
2022/11/06 00:31:12;;;;;;;13.00;10.05;;;;;;;7.95;100.00;101190.84;5011449;28;20307;-48
2022/11/06 00:33:38;;;;;;;12.93;10.35;;;;;;;7.95;100.00;101180.19;5012241;28;20223;-48
2022/11/06 00:36:07;;;;;;;14.65;10.85;;;;;;;7.97;100.00;101184.56;5008748;28;20288;-48
2022/11/06 00:38:33;;;;;;;13.40;10.23;;;;;;;7.97;100.00;101181.03;5010242;28;20262;-48
2022/11/06 00:41:03;;;;;;;14.05;10.30;;;;;;;7.97;100.00;101189.03;5011171;28;20701;-48
2022/11/06 00:43:29;;;;;;;14.30;10.88;;;;;;;8.00;100.00;101176.53;5009625;28;20185;-48
2022/11/06 00:46:22;;;;;;;14.25;9.95;;;;;;;8.01;100.00;101180.06;5009437;28;20290;-47
2022/11/06 00:48:48;;;;;;;17.15;12.20;;;;;;;7.99;100.00;101176.53;5006385;28;20193;-49
2022/11/06 00:51:25;;;;;;;14.13;10.23;;;;;;;8.03;100.00;101176.44;5011921;28;20669;-48
2022/11/06 00:53:56;;;;;;;12.38;10.40;;;;;;;8.00;100.00;101176.53;5011687;28;20196;-48
2022/11/06 00:56:22;;;;;;;11.85;9.38;;;;;;;8.01;100.00;101172.91;5011910;28;20185;-48
2022/11/06 00:58:48;;;;;;;13.07;9.60;;;;;;;8.03;100.00;101165.75;5012046;28;20692;-49
2022/11/06 01:01:22;;;;;;;13.00;9.10;;;;;;;8.01;100.00;101151.56;5012259;28;20192;-48
2022/11/06 01:04:00;;;;;;;18.88;10.65;;;;;;;8.02;100.00;101163.13;5011152;28;20191;-47
2022/11/06 01:06:31;;;;;;;14.48;10.13;;;;;;;8.02;100.00;101156.03;5008973;28;20191;-47
2022/11/06 01:08:57;;;;;;;10.52;9.15;;;;;;;8.03;100.00;101157.75;5010063;28;20726;-48
2022/11/06 01:11:30;;;;;;;14.30;9.82;;;;;;;8.03;100.00;101151.56;5011641;28;20323;-48
2022/11/06 01:13:58;;;;;;;12.00;8.75;;;;;;;7.97;100.00;101152.56;4997819;28;20583;-48
2022/11/06 01:16:24;;;;;;;15.15;9.80;;;;;;;7.95;100.00;101142.84;5011784;28;20203;-49
2022/11/06 01:18:50;;;;;;;15.02;9.65;;;;;;;7.89;100.00;101143.84;5011889;28;20229;-48
2022/11/06 01:21:21;;;;;;;12.48;8.98;;;;;;;7.88;100.00;101144.75;5011396;28;20314;-46
2022/11/06 01:23:51;;;;;;;11.80;8.93;;;;;;;7.86;100.00;101129.72;5011257;28;20199;-47
2022/11/06 01:26:16;;;;;;;10.52;9.32;;;;;;;7.81;100.00;101127.16;5011579;28;20489;-50
2022/11/06 01:28:42;;;;;;;11.27;9.50;;;;;;;7.78;100.00;101121.84;5011464;28;20180;-48
2022/11/06 01:31:10;;;;;;;12.68;9.10;;;;;;;7.79;100.00;101113.84;5011396;28;20299;-48
2022/11/06 01:33:36;;;;;;;11.45;8.85;;;;;;;7.77;100.00;101110.31;5010514;28;20201;-48
2022/11/06 01:36:02;;;;;;;13.32;9.50;;;;;;;7.73;100.00;101107.75;5011369;28;20192;-47
2022/11/06 01:38:27;;;;;;;13.15;8.50;;;;;;;7.71;100.00;101106.91;5011584;28;20239;-47
2022/11/06 01:40:53;;;;;;;14.18;8.55;;;;;;;7.70;100.00;101100.72;5010224;28;20196;-48
2022/11/06 01:43:45;;;;;;;12.32;8.18;;;;;;;7.80;100.00;101104.91;5009838;28;20234;-47
2022/11/06 01:46:10;;;;;;;12.00;8.13;;;;;;;7.79;100.00;101103.16;5023610;28;20228;-45
2022/11/06 01:48:38;;;;;;;8.65;7.82;;;;;;;7.80;100.00;101107.56;5011301;28;20243;-48
2022/11/06 01:51:05;;;;;;;13.35;8.23;;;;;;;7.74;100.00;101101.50;5010955;28;20208;-49
2022/11/06 01:53:31;;;;;;;11.95;7.85;;;;;;;7.73;100.00;101089.97;5009999;28;20273;-49
2022/11/06 01:55:59;;;;;;;13.05;8.15;;;;;;;7.76;100.00;101092.56;5010768;28;20673;-47
2022/11/06 01:58:28;;;;;;;15.18;7.38;;;;;;;7.76;100.00;101081.00;5010753;28;20193;-47
2022/11/06 02:00:54;;;;;;;13.80;7.88;;;;;;;7.77;100.00;101083.66;5010897;28;20197;-48
2022/11/06 02:03:19;;;;;;;11.13;7.38;;;;;;;7.77;100.00;101083.66;5009308;28;20778;-47
2022/11/06 02:05:46;;;;;;;9.93;6.68;;;;;;;7.78;100.00;101084.50;5010671;28;20343;-47
2022/11/06 02:08:14;;;;;;;14.40;7.05;;;;;;;7.78;100.00;101087.19;5010858;28;20684;-48
2022/11/06 02:10:41;;;;;;;10.32;7.25;;;;;;;7.79;100.00;101064.94;5010287;28;20313;-49
2022/11/06 02:13:15;;;;;;;13.32;7.07;;;;;;;7.79;100.00;101081.81;5010302;28;20184;-48
2022/11/06 02:15:49;;;;;;;12.10;6.70;;;;;;;7.78;100.00;101069.41;5007231;28;20307;-48
2022/11/06 02:18:15;;;;;;;11.23;6.97;;;;;;;7.80;100.00;101056.03;5009285;28;20180;-47
2022/11/06 02:20:45;;;;;;;10.05;6.28;;;;;;;7.79;100.00;101055.16;5009258;28;20188;-47
2022/11/06 02:23:54;;;;;;;6.90;6.03;;;;;;;7.81;100.00;101034.66;5009410;28;20188;-46
2022/11/06 02:26:47;;;;;;;11.15;6.85;;;;;;;7.78;100.00;101045.41;5008893;28;20228;-47
2022/11/06 02:29:19;;;;;;;7.82;5.78;;;;;;;7.77;100.00;101035.63;5001395;28;20192;-47
2022/11/06 02:31:48;;;;;;;10.73;5.93;;;;;;;7.79;100.00;101049.81;5007724;28;20180;-47
2022/11/06 02:34:18;;;;;;;10.45;6.40;;;;;;;7.87;100.00;101041.66;5009072;28;20172;-47
2022/11/06 02:36:55;;;;;;;8.20;4.80;;;;;;;7.88;100.00;101034.50;5007282;28;20188;-47
2022/11/06 02:39:23;;;;;;;12.82;6.05;;;;;;;7.89;100.00;101031.78;5007350;28;20226;-48
2022/11/06 02:41:51;;;;;;;8.10;5.30;;;;;;;7.91;100.00;101034.44;5010101;28;20629;-47
2022/11/06 02:44:20;;;;;;;6.13;4.88;;;;;;;7.92;100.00;101026.41;5003648;28;20243;-46
2022/11/06 02:47:00;;;;;;;7.45;4.97;;;;;;;7.98;100.00;101030.69;5008596;28;20187;-48
2022/11/06 02:49:31;;;;;;;7.55;5.03;;;;;;;7.97;100.00;101026.28;5010112;28;20421;-46
2022/11/06 02:52:05;;;;;;;6.80;4.75;;;;;;;8.05;100.00;101018.97;5009592;28;20600;-48
2022/11/06 02:54:36;;;;;;;9.25;5.55;;;;;;;8.08;100.00;101010.88;5007803;28;20217;-49
2022/11/06 02:57:07;;;;;;;6.25;4.65;;;;;;;8.12;100.00;101017.91;5009919;28;20248;-47
2022/11/06 02:59:47;;;;;;;9.38;4.65;;;;;;;8.09;100.00;101015.31;5008135;28;20177;-49
2022/11/06 03:02:19;;;;;;;8.75;4.75;;;;;;;8.13;100.00;101006.28;5009761;28;20315;-48
2022/11/06 03:04:52;;;;;;;11.85;4.95;;;;;;;8.14;100.00;101002.72;5008919;28;20226;-48
2022/11/06 03:07:36;;;;;;;7.55;4.47;;;;;;;8.16;100.00;101005.38;5009703;28;20204;-47
2022/11/06 03:10:03;;;;;;;7.00;4.80;;;;;;;8.12;100.00;100996.56;4998674;28;20286;-47
2022/11/06 03:12:39;;;;;;;6.55;4.68;;;;;;;8.12;100.00;100988.53;5009426;28;20177;-48
2022/11/06 03:15:09;;;;;;;7.63;4.60;;;;;;;8.14;100.00;100994.72;5004673;28;20208;-48
2022/11/06 03:17:55;;;;;;;7.05;4.20;;;;;;;8.16;100.00;100992.88;5008870;28;20196;-46
2022/11/06 03:20:35;;;;;;;6.40;4.63;;;;;;;8.18;100.00;101008.88;5009515;28;20217;-47
2022/11/06 03:23:10;;;;;;;8.43;4.63;;;;;;;8.18;100.00;100988.38;5008881;28;20724;-49
2022/11/06 03:25:47;;;;;;;7.57;4.82;;;;;;;8.17;100.00;100993.75;5009096;28;20208;-47
2022/11/06 03:28:30;;;;;;;6.85;4.78;;;;;;;8.15;100.00;100993.78;5009268;28;20188;-47
2022/11/06 03:31:00;;;;;;;10.15;4.80;;;;;;;8.03;100.00;100986.13;4995216;28;20198;-48
2022/11/06 03:33:56;;;;;;;8.30;4.68;;;;;;;7.96;100.00;100988.06;5009000;28;20234;-47
2022/11/06 03:36:25;;;;;;;7.00;4.45;;;;;;;7.92;100.00;100991.72;5007874;28;20201;-49
2022/11/06 03:39:02;;;;;;;7.65;4.78;;;;;;;7.91;100.00;100994.41;5007216;28;20197;-47
2022/11/06 03:41:38;;;;;;;8.00;5.05;;;;;;;7.82;100.00;100977.72;5008775;28;20193;-48
2022/11/06 03:44:07;;;;;;;8.93;4.85;;;;;;;7.84;100.00;100983.00;5008180;28;20280;-47
2022/11/06 03:46:37;;;;;;;7.72;5.85;;;;;;;7.79;100.00;100995.59;5009241;28;20293;-47
2022/11/06 03:49:11;;;;;;;7.40;5.63;;;;;;;7.68;100.00;100993.19;5007791;28;20668;-47
2022/11/06 03:51:43;;;;;;;7.95;5.80;;;;;;;7.67;100.00;100995.88;5009022;28;20253;-47
2022/11/06 03:54:14;;;;;;;12.02;5.32;;;;;;;7.62;100.00;100994.19;5008240;28;20200;-48
2022/11/06 03:56:45;;;;;;;10.32;5.78;;;;;;;7.51;100.00;100998.91;5008957;28;20208;-48
2022/11/06 03:59:13;;;;;;;10.73;6.30;;;;;;;7.48;100.00;100991.00;5008914;28;20176;-48
2022/11/06 04:01:44;;;;;;;12.25;6.88;;;;;;;7.50;100.00;100998.94;5008686;28;20173;-48
2022/11/06 04:04:27;;;;;;;9.32;6.50;;;;;;;7.49;100.00;100989.19;5008049;28;20509;-48
2022/11/06 04:07:02;;;;;;;9.20;6.40;;;;;;;7.47;100.00;100999.88;5008545;28;20203;-48
2022/11/06 04:15:09;;;;;;;11.25;7.30;;;;;;;7.37;100.00;100988.56;5008034;28;20739;-47
2022/11/06 04:17:36;;;;;;;12.77;8.10;;;;;;;7.31;100.00;100991.34;5008636;28;20515;-48
2022/11/06 04:20:04;;;;;;;10.40;7.75;;;;;;;7.31;100.00;101002.03;5008787;28;20172;-48
2022/11/06 04:22:53;;;;;;;11.82;7.78;;;;;;;7.29;100.00;101008.31;5008791;28;20775;-47
2022/11/06 04:28:37;;;;;;;12.43;8.27;;;;;;;7.34;100.00;101020.59;5007554;28;20192;-47
2022/11/06 04:31:11;;;;;;;11.45;8.48;;;;;;;7.35;100.00;101010.84;5006219;28;20258;-47
2022/11/06 04:34:05;;;;;;;10.52;8.88;;;;;;;7.30;100.00;101015.38;5008475;28;20191;-47
2022/11/06 04:36:50;;;;;;;11.73;9.00;;;;;;;7.28;100.00;101012.75;4997981;28;20189;-47
2022/11/06 04:39:35;;;;;;;17.95;9.50;;;;;;;7.27;100.00;101005.66;5007537;28;20195;-47
2022/11/06 04:42:10;;;;;;;9.63;8.60;;;;;;;7.27;100.00;101000.31;5006133;28;20197;-47
2022/11/06 04:44:42;;;;;;;14.52;9.55;;;;;;;7.27;100.00;101002.13;4986436;28;20584;-47
2022/11/06 04:47:12;;;;;;;16.85;9.50;;;;;;;7.28;100.00;100995.88;5008697;28;20173;-48
2022/11/06 04:49:41;;;;;;;13.98;9.55;;;;;;;7.32;100.00;100989.56;5008189;28;20235;-47
2022/11/06 04:52:16;;;;;;;11.40;9.43;;;;;;;7.26;100.00;100995.94;5008572;28;20624;-49
2022/11/06 04:54:44;;;;;;;13.60;9.80;;;;;;;7.27;100.00;100997.66;5006100;28;20708;-47
2022/11/06 04:57:10;;;;;;;14.55;9.93;;;;;;;7.28;100.00;101003.88;5008472;28;20189;-47
2022/11/06 04:59:36;;;;;;;11.68;9.70;;;;;;;7.25;100.00;101003.94;5008670;28;20183;-47
2022/11/06 05:02:01;;;;;;;12.40;9.45;;;;;;;7.24;100.00;101003.06;5007841;28;20588;-47
2022/11/06 05:04:27;;;;;;;19.38;10.32;;;;;;;7.23;100.00;101011.97;5007414;28;20208;-47
2022/11/06 05:06:52;;;;;;;19.33;10.57;;;;;;;7.33;100.00;101018.00;5007895;28;20381;-47
2022/11/06 05:09:18;;;;;;;18.33;11.05;;;;;;;7.23;100.00;101012.84;5008280;28;20196;-47
2022/11/06 05:11:44;;;;;;;15.40;10.57;;;;;;;7.20;100.00;101012.91;5008388;28;20173;-49
2022/11/06 05:14:09;;;;;;;17.70;11.75;;;;;;;7.22;100.00;101020.88;5007641;28;20187;-47
2022/11/06 05:16:35;;;;;;;14.25;10.73;;;;;;;7.23;100.00;101022.63;5010731;28;20757;-47
2022/11/06 05:19:00;;;;;;;13.95;11.10;;;;;;;7.26;100.00;101016.34;5010486;28;20180;-46
2022/11/06 05:24:09;;;;;;;14.48;11.65;;;;;;;7.25;100.00;101011.94;5009432;28;20196;-50
2022/11/06 05:26:35;;;;;;;15.90;11.50;;;;;;;7.32;100.00;101016.22;5011681;28;20272;-48
2022/11/06 05:29:01;;;;;;;13.80;12.13;;;;;;;7.22;100.00;101010.22;5011739;28;20242;-48
2022/11/06 05:31:26;;;;;;;17.67;11.57;;;;;;;7.23;100.00;101028.81;5011305;28;20205;-47
2022/11/06 05:33:52;;;;;;;14.95;12.43;;;;;;;7.27;100.00;101026.97;5010904;28;20189;-49
2022/11/06 05:36:18;;;;;;;16.17;11.82;;;;;;;7.24;100.00;101021.72;5010119;28;20281;-48
2022/11/06 05:38:43;;;;;;;21.15;12.30;;;;;;;7.25;100.00;101028.78;5011141;28;20201;-48
2022/11/06 05:41:09;;;;;;;17.05;12.27;;;;;;;7.25;100.00;101023.47;5008138;28;20180;-48
2022/11/06 05:43:34;;;;;;;14.13;12.50;;;;;;;7.23;100.00;101030.63;5010663;28;20322;-47
2022/11/06 05:46:00;;;;;;;16.52;12.75;;;;;;;7.20;100.00;101028.03;5010281;28;20505;-47
2022/11/06 05:48:27;;;;;;;16.17;12.65;;;;;;;7.26;100.00;101029.66;5011811;28;20191;-48
2022/11/06 05:50:53;;;;;;;14.88;13.30;;;;;;;7.21;100.00;101032.44;5011489;28;20220;-47
2022/11/06 05:53:18;;;;;;;16.88;13.43;;;;;;;7.23;100.00;101031.47;5009789;28;20192;-48
2022/11/06 05:55:46;;;;;;;18.52;12.77;;;;;;;7.23;100.00;101023.50;5010673;28;20209;-48
2022/11/06 05:58:12;;;;;;;18.17;13.27;;;;;;;7.25;100.00;101025.25;5011573;28;20565;-48
2022/11/06 06:00:38;;;;;;;16.52;13.00;;;;;;;7.24;100.00;101032.38;5011447;28;20650;-48
2022/11/06 06:03:03;;;;;;;14.27;12.65;;;;;;;7.29;100.00;101034.94;5010672;28;20173;-49
2022/11/06 06:05:29;;;;;;;15.02;12.73;;;;;;;7.24;100.00;101032.38;5009565;28;20319;-48
2022/11/06 06:07:54;;;;;;;21.25;12.68;;;;;;;7.25;100.00;101034.13;4993549;28;20188;-47
2022/11/06 06:10:20;;;;;;;14.63;12.68;;;;;;;7.30;100.00;101031.34;5010895;28;20204;-49
2022/11/06 06:12:48;;;;;;;17.98;12.95;;;;;;;7.27;100.00;101034.97;5009891;28;20188;-48
2022/11/06 06:15:14;;;;;;;20.05;14.40;;;;;;;7.28;100.00;101038.50;5005341;28;20247;-48
2022/11/06 06:17:40;;;;;;;16.00;13.45;;;;;;;7.26;100.00;101025.25;5009801;28;20173;-47
2022/11/06 06:20:06;;;;;;;15.65;13.43;;;;;;;7.28;100.00;101027.84;4993484;28;20692;-47
2022/11/06 06:22:32;;;;;;;14.05;12.23;;;;;;;7.28;100.00;101031.41;5009657;28;20181;-47
2022/11/06 06:24:58;;;;;;;18.40;13.63;;;;;;;7.27;100.00;101034.97;5010694;28;20226;-47
2022/11/06 06:27:26;;;;;;;15.35;13.15;;;;;;;7.28;100.00;101026.09;5008083;28;20338;-49
2022/11/06 06:29:52;;;;;;;16.30;12.85;;;;;;;7.30;100.00;101040.22;5010561;28;20263;-46
2022/11/06 06:32:17;;;;;;;15.23;13.20;;;;;;;7.36;100.00;101031.22;5007633;28;20184;-45
2022/11/06 06:34:43;;;;;;;17.15;12.55;;;;;;;7.30;100.00;101031.34;5007664;28;20628;-49
2022/11/06 06:37:09;;;;;;;17.52;12.77;;;;;;;7.31;100.00;101038.47;5009314;28;20215;-48
2022/11/06 06:39:34;;;;;;;17.80;12.60;;;;;;;7.31;100.00;101039.34;5009870;28;20188;-47
2022/11/06 06:42:00;;;;;;;20.45;13.48;;;;;;;7.30;100.00;101034.91;5009145;28;20412;-48
2022/11/06 06:44:25;;;;;;;20.50;13.40;;;;;;;7.34;100.00;101031.25;5004871;28;20291;-48
2022/11/06 06:46:51;;;;;;;15.35;12.80;;;;;;;7.35;100.00;101045.50;5010042;28;20195;-46
2022/11/06 06:49:16;;;;;;;14.45;12.23;;;;;;;7.32;100.00;101040.19;5006419;28;20188;-48
2022/11/06 06:51:42;;;;;;;16.40;12.60;;;;;;;7.36;100.00;101036.56;5009643;28;20243;-48
2022/11/06 06:54:07;;;;;;;12.75;11.65;;;;;;;7.35;100.00;101041.03;5009347;28;20193;-48
2022/11/06 06:56:33;;;;;;;13.48;12.13;;;;;;;7.36;100.00;101032.09;5008631;28;20192;-50
2022/11/06 06:58:58;;;;;;;14.63;13.07;;;;;;;7.37;100.00;101041.88;5008407;28;20177;-48
2022/11/06 07:01:24;;;;;;;13.77;12.00;;;;;;;7.37;100.00;101041.00;5009400;28;20195;-49
2022/11/06 07:03:49;;;;;;;14.50;11.85;;;;;;;7.38;100.00;101053.41;5009363;28;20246;-49
2022/11/06 07:06:18;;;;;;;13.18;11.85;;;;;;;7.36;100.00;101045.44;5009535;28;20299;-48
2022/11/06 07:08:43;;;;;;;15.38;12.00;;;;;;;7.39;100.00;101053.38;5000827;28;20187;-48
2022/11/06 07:11:10;;;;;;;13.75;12.15;;;;;;;7.41;100.00;101051.56;5009160;28;20611;-48
2022/11/06 07:13:35;;;;;;;16.52;12.07;;;;;;;7.40;100.00;101052.47;5008963;28;20199;-50
2022/11/06 07:16:09;;;;;;;15.82;11.85;;;;;;;7.41;100.00;101046.22;5009393;28;20295;-49
2022/11/06 07:18:36;;;;;;;15.43;11.90;;;;;;;7.43;100.00;101052.41;5008814;28;20192;-48
2022/11/06 07:21:10;;;;;;;14.23;11.85;;;;;;;7.43;100.00;101046.19;5008273;28;20287;-48
2022/11/06 07:23:35;;;;;;;16.05;11.63;;;;;;;7.44;100.00;101058.59;5008598;28;20195;-47
2022/11/06 07:26:02;;;;;;;15.02;11.50;;;;;;;7.49;100.00;101056.72;5009190;28;20299;-48
2022/11/06 07:28:27;;;;;;;12.80;11.38;;;;;;;7.46;100.00;101055.91;5009182;28;20269;-48
2022/11/06 07:30:57;;;;;;;12.30;11.10;;;;;;;7.50;100.00;101055.81;5009308;28;20391;-48
2022/11/06 07:33:22;;;;;;;11.52;10.32;;;;;;;7.49;100.00;101061.16;5008615;28;20263;-47
2022/11/06 07:35:48;;;;;;;13.95;10.73;;;;;;;7.52;100.00;101061.09;5009102;28;20600;-48
2022/11/06 07:38:13;;;;;;;13.00;11.02;;;;;;;7.52;100.00;101061.09;5008593;28;20179;-46
2022/11/06 07:40:39;;;;;;;12.30;9.40;;;;;;;7.55;100.00;101059.25;5009424;28;20543;-47
2022/11/06 07:43:05;;;;;;;10.95;9.85;;;;;;;7.54;100.00;101051.28;5007940;28;20638;-48
2022/11/06 07:45:31;;;;;;;11.32;10.23;;;;;;;7.53;100.00;101061.06;5007275;28;20204;-49
2022/11/06 07:47:57;;;;;;;12.27;10.55;;;;;;;7.52;100.00;101053.09;5008806;28;20243;-48
2022/11/06 07:50:22;;;;;;;12.15;10.25;;;;;;;7.53;100.00;101057.53;5008957;28;20196;-47
2022/11/06 07:52:48;;;;;;;15.13;10.30;;;;;;;7.53;100.00;101060.19;5007824;28;20176;-48
2022/11/06 07:55:13;;;;;;;12.82;10.88;;;;;;;7.56;100.00;101062.78;5008433;28;20224;-49
2022/11/06 07:57:39;;;;;;;11.93;10.60;;;;;;;7.57;100.00;101062.75;5007807;28;20574;-47
2022/11/06 08:00:05;;;;;;;12.40;11.07;;;;;;;7.57;100.00;101068.09;5008964;28;20291;-48
2022/11/06 08:02:38;;;;;;;11.90;10.73;;;;;;;7.62;100.00;101071.53;5007677;28;20743;-47
2022/11/06 08:05:04;;;;;;;12.15;10.93;;;;;;;7.62;100.00;101076.84;5008237;28;20204;-48
2022/11/06 08:07:29;;;;;;;12.60;10.68;;;;;;;7.58;100.00;101061.84;4991022;28;20196;-47
2022/11/06 08:09:54;;;;;;;13.52;10.60;;;;;;;7.58;100.00;101068.97;5004118;28;20196;-48
2022/11/06 08:12:20;;;;;;;12.82;11.27;;;;;;;7.61;100.00;101066.25;5007299;28;20192;-48
2022/11/06 08:14:45;;;;;;;11.98;10.77;;;;;;;7.63;100.00;101062.63;5002315;28;20204;-49
2022/11/06 08:17:11;;;;;;;11.00;9.90;;;;;;;7.64;100.00;101069.69;5008662;28;20192;-48
2022/11/06 08:19:36;;;;;;;13.68;10.82;;;;;;;7.67;100.00;101058.09;4992712;28;20401;-47
2022/11/06 08:22:02;;;;;;;12.98;10.98;;;;;;;7.71;100.00;101051.78;5006518;28;20181;-50
2022/11/06 08:24:28;;;;;;;10.93;9.88;;;;;;;7.64;100.00;101056.38;4987009;28;20205;-48
2022/11/06 08:26:53;;;;;;;13.40;11.27;;;;;;;7.66;100.00;101067.00;5007943;28;20181;-47
2022/11/06 08:29:18;;;;;;;15.57;10.30;;;;;;;7.64;100.00;101053.69;5007304;28;20185;-50
2022/11/06 08:31:44;;;;;;;11.25;10.15;;;;;;;7.69;100.00;101061.59;5005150;28;20258;-46
2022/11/06 08:34:10;;;;;;;13.95;9.98;;;;;;;7.66;100.00;101074.13;4994264;28;20289;-46
2022/11/06 08:36:39;;;;;;;12.73;10.85;;;;;;;7.71;100.00;101064.25;5005811;28;20228;-48
2022/11/06 08:39:04;;;;;;;14.10;10.52;;;;;;;7.68;100.00;101059.84;5006237;28;20247;-49
2022/11/06 08:41:30;;;;;;;11.98;10.32;;;;;;;7.67;100.00;101062.53;5005912;28;20173;-47
2022/11/06 08:43:55;;;;;;;12.15;10.13;;;;;;;7.67;100.00;101044.75;5004659;28;20195;-47
2022/11/06 08:46:21;;;;;;;14.13;11.30;;;;;;;7.69;100.00;101044.72;5008153;28;20740;-47
2022/11/06 08:48:46;;;;;;;14.05;11.32;;;;;;;7.72;100.00;101045.53;5007377;28;20238;-47
2022/11/06 08:51:12;;;;;;;12.48;11.15;;;;;;;7.70;100.00;101047.38;5014024;28;20204;-48
2022/11/06 08:53:37;;;;;;;15.50;11.50;;;;;;;7.69;100.00;101050.94;4998544;28;20189;-46
2022/11/06 08:56:03;;;;;;;14.52;11.82;;;;;;;7.71;100.00;101048.22;5011658;28;20263;-48
2022/11/06 08:58:29;;;;;;;15.57;11.45;;;;;;;7.73;100.00;101043.75;5010576;28;20637;-48
2022/11/06 09:00:54;;;;;;;13.65;11.60;;;;;;;7.76;100.00;101046.31;5010439;28;20234;-48
2022/11/06 09:03:20;;;;;;;19.10;12.27;;;;;;;7.76;100.00;101047.22;5011337;28;20748;-47
2022/11/06 09:05:45;;;;;;;13.60;11.38;;;;;;;7.75;100.00;101042.78;4999006;28;20184;-49
2022/11/06 09:08:12;;;;;;;14.93;12.32;;;;;;;7.81;100.00;101042.66;5012048;28;20231;-48
2022/11/06 09:10:39;;;;;;;15.82;12.85;;;;;;;7.79;100.00;101041.81;5011572;28;20214;-48
2022/11/06 09:13:04;;;;;;;20.48;12.13;;;;;;;7.81;100.00;101034.66;5011836;28;20192;-47
2022/11/06 09:15:30;;;;;;;13.88;11.82;;;;;;;7.80;100.00;101045.34;5011271;28;20208;-48
2022/11/06 09:17:56;;;;;;;14.88;12.27;;;;;;;7.81;100.00;101036.44;5011325;28;20242;-48
2022/11/06 09:20:23;;;;;;;18.25;12.77;;;;;;;7.83;100.00;101038.16;5012413;28;20231;-48
2022/11/06 09:22:49;;;;;;;17.17;12.95;;;;;;;7.87;100.00;101038.97;5011468;28;20188;-47
2022/11/06 09:25:15;;;;;;;16.40;12.40;;;;;;;7.93;100.00;101038.81;5006712;28;20215;-48
2022/11/06 09:27:49;;;;;;;13.80;12.02;;;;;;;7.96;100.00;101038.75;5011632;28;20876;-47
2022/11/06 09:30:17;;;;;;;17.70;12.13;;;;;;;7.93;100.00;101045.94;5001307;28;20296;-48
2022/11/06 09:32:47;;;;;;;19.00;12.30;;;;;;;7.92;100.00;101038.88;5003999;28;20243;-49
2022/11/06 09:35:13;;;;;;;21.25;12.80;;;;;;;7.89;100.00;101055.78;5005030;28;20339;-47
2022/11/06 09:37:39;;;;;;;17.17;12.13;;;;;;;7.92;100.00;101045.06;5007410;28;20264;-50
2022/11/06 09:40:05;;;;;;;15.80;11.63;;;;;;;7.91;100.00;101042.44;5002698;28;20172;-50
2022/11/06 09:42:57;;;;;;;18.92;11.68;;;;;;;7.96;100.00;101035.19;5003573;28;20199;-48
2022/11/06 09:45:27;;;;;;;15.77;11.48;;;;;;;8.05;100.00;101040.31;5006811;28;20225;-48
2022/11/06 09:47:57;;;;;;;22.42;12.73;;;;;;;8.04;100.00;101041.22;5008397;28;20173;-48
2022/11/06 09:50:28;;;;;;;17.83;11.10;;;;;;;8.02;100.00;101011.94;5011012;28;20215;-48
2022/11/06 09:53:02;;;;;;;14.00;10.70;;;;;;;8.04;100.00;101027.88;5011176;28;20318;-49
2022/11/06 09:55:34;;;;;;;16.00;10.48;;;;;;;8.07;100.00;101034.94;5009618;28;20208;-49
2022/11/06 09:58:19;;;;;;;14.70;10.30;;;;;;;8.05;100.00;101013.63;5009933;28;20299;-49
2022/11/06 10:00:44;;;;;;;15.05;9.85;;;;;;;8.11;100.00;101024.16;5008790;28;20227;-48
2022/11/06 10:03:31;;;;;;;14.70;10.00;;;;;;;8.12;100.00;101039.25;5009309;28;20255;-49
2022/11/06 10:05:56;;;;;;;10.77;9.45;;;;;;;8.23;100.00;101036.31;5010159;28;20680;-47
2022/11/06 10:08:26;;;;;;;14.63;9.88;;;;;;;8.21;100.00;101028.34;5007588;28;20200;-49
2022/11/06 10:11:03;;;;;;;15.23;9.30;;;;;;;8.18;100.00;101033.75;5008421;28;20211;-45
2022/11/06 10:13:40;;;;;;;18.27;9.15;;;;;;;8.21;100.00;101027.47;5007113;28;20924;-45
2022/11/06 10:16:57;;;;;;;13.60;9.10;;;;;;;8.32;100.00;101035.22;5004342;28;20283;-44
2022/11/06 10:19:40;;;;;;;19.30;8.88;;;;;;;8.31;100.00;101038.78;4992249;28;20199;-44
2022/11/06 10:22:19;;;;;;;15.52;8.70;;;;;;;8.28;100.00;101029.06;5022308;28;20260;-42
2022/11/06 10:25:12;;;;;;;15.32;8.70;;;;;;;8.30;100.00;101029.03;5010643;28;20212;-45
2022/11/06 10:27:40;;;;;;;13.95;7.72;;;;;;;8.41;100.00;101021.66;5009453;28;20499;-44
2022/11/06 10:30:11;;;;;;;14.90;8.63;;;;;;;8.41;100.00;101016.31;5010928;28;20720;-43
2022/11/06 10:33:19;;;;;;;9.80;8.15;;;;;;;8.47;100.00;101015.28;5011258;28;20590;-44
2022/11/06 10:35:53;;;;;;;17.52;7.68;;;;;;;8.44;100.00;101008.22;5010054;28;20216;-43
2022/11/06 10:38:26;;;;;;;10.15;7.45;;;;;;;8.49;100.00;101008.09;5009939;28;20180;-44
2022/11/06 10:40:53;;;;;;;13.85;7.10;;;;;;;8.39;100.00;101000.28;5010798;28;20667;-45
2022/11/06 10:43:28;;;;;;;11.38;7.18;;;;;;;8.57;100.00;100996.31;5010945;28;20177;-45
2022/11/06 10:46:21;;;;;;;10.90;6.88;;;;;;;8.62;100.00;100990.84;5006213;28;20204;-43
2022/11/06 10:48:55;;;;;;;11.55;6.80;;;;;;;8.69;100.00;100991.53;5008699;28;20559;-47
2022/11/06 10:51:53;;;;;;;15.90;7.45;;;;;;;8.74;100.00;100995.81;5007121;28;20565;-46
2022/11/06 10:54:40;;;;;;;13.50;6.90;;;;;;;8.76;100.00;100993.09;5008460;28;20604;-44
2022/11/06 10:57:53;;;;;;;13.13;6.47;;;;;;;8.76;100.00;100977.94;4993232;28;20180;-46
2022/11/06 11:00:19;;;;;;;10.93;6.28;;;;;;;8.82;100.00;100976.91;5004078;28;20208;-46
2022/11/06 11:03:06;;;;;;;11.93;5.85;;;;;;;8.85;100.00;100966.13;5008802;28;20184;-45
2022/11/06 11:05:40;;;;;;;9.90;6.30;;;;;;;8.95;100.00;100962.28;5009425;28;20217;-46
2022/11/06 11:08:26;;;;;;;10.45;5.97;;;;;;;9.14;100.00;100959.03;5008719;28;20184;-46
2022/11/06 11:10:51;;;;;;;12.73;6.10;;;;;;;9.17;100.00;100957.16;5009324;28;20242;-42
2022/11/06 11:13:19;;;;;;;8.60;5.65;;;;;;;9.16;100.00;100952.75;5007416;28;20645;-43
2022/11/06 11:15:48;;;;;;;9.73;5.43;;;;;;;9.22;100.00;100955.22;5010458;28;20533;-46
2022/11/06 11:18:39;;;;;;;11.05;5.68;;;;;;;8.94;100.00;100952.50;5009895;28;20180;-45
2022/11/06 11:21:12;;;;;;;11.93;5.50;;;;;;;9.04;100.00;100945.09;5005379;28;20242;-46
2022/11/06 11:23:38;;;;;;;9.18;5.10;;;;;;;8.99;100.00;100947.91;5009819;28;20581;-46
2022/11/06 11:26:26;;;;;;;13.57;5.10;;;;;;;9.02;100.00;100947.78;5009790;28;20303;-45
2022/11/06 11:28:57;;;;;;;11.07;5.65;;;;;;;9.02;100.00;100947.78;5009537;28;20224;-45
2022/11/06 11:31:33;;;;;;;12.55;5.20;;;;;;;9.05;100.00;100945.06;5009594;28;20247;-45
2022/11/06 11:34:02;;;;;;;7.55;4.63;;;;;;;9.19;100.00;100935.72;5008545;28;20189;-45
2022/11/06 11:36:47;;;;;;;10.98;4.60;;;;;;;9.19;100.00;100933.94;5009838;28;20187;-44
2022/11/06 11:39:14;;;;;;;9.43;4.75;;;;;;;9.33;100.00;100930.81;5006201;28;20192;-44
2022/11/06 11:41:40;;;;;;;11.85;4.78;;;;;;;9.44;100.00;100936.69;5009768;28;20207;-46
2022/11/06 11:44:14;;;;;;;10.68;4.20;;;;;;;9.48;100.00;100918.75;5012673;28;20263;-45